Time;durP1;ratioP1;P1;durP2;ratioP2;P2;SDS_P1;SDS_P2;PMS_P1;PMS_P2;Temp;Humidity;BMP_temperature;BMP_pressure;BME280_temperature;BME280_humidity;BME280_pressure;Samples;Min_cycle;Max_cycle;Signal;HPM_P1;HPM_P2
2022/07/24 00:01:38;;;;;;;23.33;9.30;;;;;;;;;;3353030;42;20080;-58
2022/07/24 00:04:04;;;;;;;21.53;9.23;;;;;;;;;;3341753;42;20301;-57
2022/07/24 00:06:30;;;;;;;21.35;9.35;;;;;;;;;;3352241;42;20532;-58
2022/07/24 00:08:56;;;;;;;19.20;9.70;;;;;;;;;;3348357;42;20694;-57
2022/07/24 00:11:22;;;;;;;20.83;9.15;;;;;;;;;;3353343;42;20100;-57
2022/07/24 00:13:48;;;;;;;18.55;8.95;;;;;;;;;;3342431;42;20107;-59
2022/07/24 00:16:14;;;;;;;19.47;9.57;;;;;;;;;;3355531;42;20088;-59
2022/07/24 00:18:40;;;;;;;24.10;10.77;;;;;;;;;;3345126;42;20111;-58
2022/07/24 00:21:06;;;;;;;20.17;9.70;;;;;;;;;;3357047;42;20085;-58
2022/07/24 00:23:32;;;;;;;19.70;9.48;;;;;;;;;;3348324;42;20144;-59
2022/07/24 00:25:58;;;;;;;21.40;10.27;;;;;;;;;;3351776;42;20111;-57
2022/07/24 00:28:24;;;;;;;22.80;9.10;;;;;;;;;;3352876;42;20096;-58
2022/07/24 00:30:50;;;;;;;20.27;9.40;;;;;;;;;;3352769;42;20076;-55
2022/07/24 00:33:16;;;;;;;20.20;9.32;;;;;;;;;;3356158;42;20582;-59
2022/07/24 00:35:43;;;;;;;19.15;9.00;;;;;;;;;;3344223;42;20171;-58
2022/07/24 00:38:09;;;;;;;22.07;9.03;;;;;;;;;;3348476;42;20123;-58
2022/07/24 00:40:35;;;;;;;21.15;8.90;;;;;;;;;;3340032;42;20120;-56
2022/07/24 00:43:02;;;;;;;20.25;9.02;;;;;;;;;;3352842;42;20116;-58
2022/07/24 00:45:27;;;;;;;24.38;9.65;;;;;;;;;;3352208;42;20087;-58
2022/07/24 00:47:53;;;;;;;18.10;9.43;;;;;;;;;;3350916;42;20115;-58
2022/07/24 00:50:19;;;;;;;19.85;9.27;;;;;;;;;;3352813;42;20566;-58
2022/07/24 00:52:45;;;;;;;20.08;9.30;;;;;;;;;;3353903;42;20627;-56
2022/07/24 00:55:11;;;;;;;18.67;9.30;;;;;;;;;;3344024;42;20548;-58
2022/07/24 00:57:37;;;;;;;21.07;9.20;;;;;;;;;;3350355;42;20136;-57
2022/07/24 01:00:06;;;;;;;19.60;9.07;;;;;;;;;;3347736;42;20092;-58
2022/07/24 01:02:32;;;;;;;19.10;9.55;;;;;;;;;;3350571;42;20136;-59
2022/07/24 01:04:58;;;;;;;21.60;9.18;;;;;;;;;;3351824;42;20132;-58
2022/07/24 01:07:24;;;;;;;19.23;8.67;;;;;;;;;;3354908;42;20092;-57
2022/07/24 01:09:51;;;;;;;19.38;8.07;;;;;;;;;;3354416;42;20076;-58
2022/07/24 01:12:17;;;;;;;18.50;8.70;;;;;;;;;;3341677;42;20084;-59
2022/07/24 01:14:43;;;;;;;23.17;9.70;;;;;;;;;;3352494;42;20076;-58
2022/07/24 01:17:09;;;;;;;20.60;8.45;;;;;;;;;;3344458;42;20132;-58
2022/07/24 01:19:35;;;;;;;17.33;8.70;;;;;;;;;;3354710;42;20092;-59
2022/07/24 01:22:01;;;;;;;18.90;8.60;;;;;;;;;;3342435;42;20152;-56
2022/07/24 01:24:27;;;;;;;19.08;8.18;;;;;;;;;;3352387;42;20092;-58
2022/07/24 01:26:53;;;;;;;15.48;8.18;;;;;;;;;;3346620;42;20080;-58
2022/07/24 01:29:20;;;;;;;21.63;8.90;;;;;;;;;;3342931;42;20548;-57
2022/07/24 01:31:45;;;;;;;21.43;8.30;;;;;;;;;;3353042;42;20780;-58
2022/07/24 01:34:12;;;;;;;18.52;7.63;;;;;;;;;;3352929;42;20165;-60
2022/07/24 01:36:39;;;;;;;17.33;8.25;;;;;;;;;;3352899;42;20645;-57
2022/07/24 01:39:04;;;;;;;23.92;8.77;;;;;;;;;;3342302;42;20579;-59
2022/07/24 01:41:30;;;;;;;16.23;8.33;;;;;;;;;;3352171;42;20089;-58
2022/07/24 01:43:56;;;;;;;21.48;8.15;;;;;;;;;;3352379;42;20152;-60
2022/07/24 01:46:22;;;;;;;18.10;8.02;;;;;;;;;;3354605;42;20077;-57
2022/07/24 01:48:48;;;;;;;20.20;8.73;;;;;;;;;;3352734;42;20092;-57
2022/07/24 01:51:14;;;;;;;20.63;8.15;;;;;;;;;;3350240;42;20205;-58
2022/07/24 01:53:40;;;;;;;20.35;8.43;;;;;;;;;;3351154;42;20096;-58
2022/07/24 01:56:06;;;;;;;19.42;8.75;;;;;;;;;;3353235;42;20107;-57
2022/07/24 01:58:32;;;;;;;15.93;7.73;;;;;;;;;;3349859;42;20104;-57
2022/07/24 02:00:58;;;;;;;17.17;8.35;;;;;;;;;;3354091;42;20160;-58
2022/07/24 02:03:24;;;;;;;17.77;8.52;;;;;;;;;;3348950;42;20077;-58
2022/07/24 02:05:50;;;;;;;17.52;8.35;;;;;;;;;;3355330;42;20081;-57
2022/07/24 02:08:16;;;;;;;17.77;7.87;;;;;;;;;;3349239;42;20699;-58
2022/07/24 02:10:42;;;;;;;14.82;7.90;;;;;;;;;;3356364;42;20093;-57
2022/07/24 02:13:08;;;;;;;16.55;7.80;;;;;;;;;;3352845;42;20084;-56
2022/07/24 02:15:34;;;;;;;17.40;8.40;;;;;;;;;;3356807;42;20088;-57
2022/07/24 02:18:00;;;;;;;17.53;8.60;;;;;;;;;;3355439;42;20100;-56
2022/07/24 02:20:27;;;;;;;16.17;8.30;;;;;;;;;;3356631;42;20080;-57
2022/07/24 02:22:53;;;;;;;22.05;9.20;;;;;;;;;;3345505;42;20097;-57
2022/07/24 02:25:19;;;;;;;18.67;8.98;;;;;;;;;;3353082;42;20564;-58
2022/07/24 02:27:45;;;;;;;16.70;8.70;;;;;;;;;;3353049;42;20100;-58
2022/07/24 02:30:15;;;;;;;16.77;9.20;;;;;;;;;;3350347;42;20151;-55
2022/07/24 02:32:41;;;;;;;20.58;9.02;;;;;;;;;;3339813;42;20144;-58
2022/07/24 02:35:08;;;;;;;20.00;9.10;;;;;;;;;;3354025;42;20072;-58
2022/07/24 02:37:41;;;;;;;16.42;8.38;;;;;;;;;;3349629;42;20088;-58
2022/07/24 02:40:08;;;;;;;19.27;9.02;;;;;;;;;;3350320;42;20502;-57
2022/07/24 02:42:34;;;;;;;20.23;9.20;;;;;;;;;;3352571;42;20207;-59
2022/07/24 02:45:00;;;;;;;16.35;8.43;;;;;;;;;;3346942;42;20189;-58
2022/07/24 02:47:26;;;;;;;21.70;9.40;;;;;;;;;;3354664;42;20076;-58
2022/07/24 02:49:52;;;;;;;18.05;8.85;;;;;;;;;;3354040;42;20548;-58
2022/07/24 02:52:18;;;;;;;16.67;9.40;;;;;;;;;;3354267;42;20123;-58
2022/07/24 02:54:44;;;;;;;17.70;8.65;;;;;;;;;;3353835;42;20178;-58
2022/07/24 02:57:10;;;;;;;20.90;8.60;;;;;;;;;;3353660;42;20081;-57
2022/07/24 02:59:36;;;;;;;20.25;9.38;;;;;;;;;;3352445;42;20089;-57
2022/07/24 03:02:02;;;;;;;24.87;10.97;;;;;;;;;;3356264;42;20136;-57
2022/07/24 03:04:28;;;;;;;24.42;9.88;;;;;;;;;;3349252;42;20136;-58
2022/07/24 03:06:54;;;;;;;22.83;10.57;;;;;;;;;;3356336;42;20096;-57
2022/07/24 03:09:20;;;;;;;39.77;15.10;;;;;;;;;;3353239;42;20080;-57
2022/07/24 03:11:46;;;;;;;34.65;15.30;;;;;;;;;;3354333;42;20089;-58
2022/07/24 03:14:12;;;;;;;38.53;16.30;;;;;;;;;;3352393;42;20088;-59
2022/07/24 03:16:38;;;;;;;39.67;17.63;;;;;;;;;;3351826;42;20089;-58
2022/07/24 03:19:04;;;;;;;41.17;17.73;;;;;;;;;;3341533;42;20128;-57
2022/07/24 03:21:30;;;;;;;43.72;18.38;;;;;;;;;;3358168;42;20092;-55
2022/07/24 03:23:56;;;;;;;46.17;18.60;;;;;;;;;;3352278;42;20111;-57
2022/07/24 03:26:22;;;;;;;42.55;18.63;;;;;;;;;;3357499;42;20585;-57
2022/07/24 03:28:48;;;;;;;37.30;17.17;;;;;;;;;;3353603;42;20129;-57
2022/07/24 03:31:14;;;;;;;41.55;17.73;;;;;;;;;;3355241;42;20131;-58
2022/07/24 03:33:39;;;;;;;41.95;18.13;;;;;;;;;;3350052;42;20156;-58
2022/07/24 03:36:06;;;;;;;38.70;17.10;;;;;;;;;;3349362;42;20124;-57
2022/07/24 03:38:32;;;;;;;41.35;18.50;;;;;;;;;;3353281;42;20555;-58
2022/07/24 03:41:00;;;;;;;45.17;18.52;;;;;;;;;;3351707;42;20155;-58
2022/07/24 03:43:29;;;;;;;44.58;19.20;;;;;;;;;;3345566;42;20099;-57
2022/07/24 03:45:55;;;;;;;43.00;19.80;;;;;;;;;;3349121;42;20081;-55
2022/07/24 03:48:22;;;;;;;51.03;20.23;;;;;;;;;;3352188;42;20091;-57
2022/07/24 03:50:48;;;;;;;47.42;20.10;;;;;;;;;;3345138;42;20084;-55
2022/07/24 03:53:14;;;;;;;47.72;19.55;;;;;;;;;;3353768;42;20507;-57
2022/07/24 03:55:40;;;;;;;45.30;20.13;;;;;;;;;;3354742;42;20160;-57
2022/07/24 03:58:06;;;;;;;41.50;19.33;;;;;;;;;;3352386;42;20138;-57
2022/07/24 04:00:32;;;;;;;37.78;17.85;;;;;;;;;;3357265;42;20567;-57
2022/07/24 04:02:58;;;;;;;33.00;15.55;;;;;;;;;;3348916;42;20084;-57
2022/07/24 04:05:24;;;;;;;30.37;14.97;;;;;;;;;;3348769;42;20556;-56
2022/07/24 04:07:50;;;;;;;29.80;14.40;;;;;;;;;;3352944;42;20143;-58
2022/07/24 04:10:16;;;;;;;27.05;14.20;;;;;;;;;;3357358;42;20577;-58
2022/07/24 04:12:42;;;;;;;30.27;15.10;;;;;;;;;;3350406;42;20088;-56
2022/07/24 04:15:08;;;;;;;28.30;14.30;;;;;;;;;;3352608;42;20468;-56
2022/07/24 04:17:38;;;;;;;27.17;14.60;;;;;;;;;;3353936;42;20144;-55
2022/07/24 04:20:04;;;;;;;24.52;13.70;;;;;;;;;;3352376;42;20147;-56
2022/07/24 04:22:30;;;;;;;28.75;14.65;;;;;;;;;;3341025;42;20464;-57
2022/07/24 04:24:56;;;;;;;22.27;13.57;;;;;;;;;;3350371;42;20577;-59
2022/07/24 04:27:22;;;;;;;21.52;12.60;;;;;;;;;;3356195;42;20097;-57
2022/07/24 04:29:48;;;;;;;21.55;13.05;;;;;;;;;;3349818;42;20097;-58
2022/07/24 04:32:14;;;;;;;20.63;12.37;;;;;;;;;;3348620;42;20107;-59
2022/07/24 04:34:40;;;;;;;19.88;12.35;;;;;;;;;;3352797;42;20170;-58
2022/07/24 04:37:06;;;;;;;21.08;12.25;;;;;;;;;;3351879;42;20088;-57
2022/07/24 04:39:32;;;;;;;19.13;11.53;;;;;;;;;;3350449;42;20635;-56
2022/07/24 04:41:58;;;;;;;18.40;12.07;;;;;;;;;;3352337;42;20111;-58
2022/07/24 04:44:24;;;;;;;20.98;14.02;;;;;;;;;;3357232;42;20104;-57
2022/07/24 04:46:50;;;;;;;21.63;12.45;;;;;;;;;;3352333;42;20072;-56
2022/07/24 04:49:16;;;;;;;19.57;11.40;;;;;;;;;;3353891;42;20081;-57
2022/07/24 04:51:42;;;;;;;20.77;12.88;;;;;;;;;;3353468;42;20135;-57
2022/07/24 04:54:08;;;;;;;20.08;12.45;;;;;;;;;;3352611;42;20227;-56
2022/07/24 04:56:34;;;;;;;19.80;11.80;;;;;;;;;;3351331;42;20148;-59
2022/07/24 04:59:01;;;;;;;18.50;11.43;;;;;;;;;;3352172;42;20183;-56
2022/07/24 05:01:28;;;;;;;25.83;12.70;;;;;;;;;;3354603;42;20080;-55
2022/07/24 05:03:56;;;;;;;18.40;11.75;;;;;;;;;;3354053;42;20085;-57
2022/07/24 05:06:23;;;;;;;16.92;11.63;;;;;;;;;;3360591;42;20107;-57
2022/07/24 05:08:49;;;;;;;19.33;11.90;;;;;;;;;;3361605;42;20721;-57
2022/07/24 05:11:15;;;;;;;16.90;11.47;;;;;;;;;;3360949;42;20244;-57
2022/07/24 05:13:41;;;;;;;18.92;11.52;;;;;;;;;;3360685;42;20088;-57
2022/07/24 05:16:07;;;;;;;17.60;10.73;;;;;;;;;;3359680;42;20084;-57
2022/07/24 05:18:33;;;;;;;18.52;10.70;;;;;;;;;;3360144;42;20096;-57
2022/07/24 05:20:59;;;;;;;16.73;10.30;;;;;;;;;;3358546;42;20215;-57
2022/07/24 05:23:25;;;;;;;17.58;11.15;;;;;;;;;;3360634;42;20084;-55
2022/07/24 05:25:51;;;;;;;14.52;10.65;;;;;;;;;;3360301;42;20159;-58
2022/07/24 05:28:17;;;;;;;15.82;9.43;;;;;;;;;;3356123;42;20104;-58
2022/07/24 05:30:43;;;;;;;16.80;9.37;;;;;;;;;;3351785;42;20510;-57
2022/07/24 05:33:09;;;;;;;15.55;9.90;;;;;;;;;;3351211;42;20107;-57
2022/07/24 05:35:35;;;;;;;15.43;9.27;;;;;;;;;;3352295;42;20076;-58
2022/07/24 05:38:01;;;;;;;16.20;9.82;;;;;;;;;;3353746;42;20567;-57
2022/07/24 05:40:27;;;;;;;13.82;8.40;;;;;;;;;;3356810;42;20568;-57
2022/07/24 05:42:53;;;;;;;14.25;8.63;;;;;;;;;;3352076;42;20097;-57
2022/07/24 05:45:19;;;;;;;16.33;9.13;;;;;;;;;;3350757;42;20084;-57
2022/07/24 05:47:45;;;;;;;14.38;8.35;;;;;;;;;;3353279;42;20110;-57
2022/07/24 05:50:12;;;;;;;17.43;10.27;;;;;;;;;;3352959;42;20080;-58
2022/07/24 05:52:38;;;;;;;13.45;8.90;;;;;;;;;;3357211;42;20088;-54
2022/07/24 05:55:05;;;;;;;15.98;9.15;;;;;;;;;;3354644;42;20088;-57
2022/07/24 05:57:31;;;;;;;16.05;10.38;;;;;;;;;;3351449;42;20190;-58
2022/07/24 05:59:57;;;;;;;19.07;11.40;;;;;;;;;;3356868;42;20089;-57
2022/07/24 06:02:23;;;;;;;19.33;10.35;;;;;;;;;;3350689;42;20103;-57
2022/07/24 06:04:49;;;;;;;18.75;11.70;;;;;;;;;;3354125;42;20073;-57
2022/07/24 06:07:15;;;;;;;20.00;11.57;;;;;;;;;;3355750;42;20085;-57
2022/07/24 06:09:40;;;;;;;28.40;15.97;;;;;;;;;;3354192;42;20092;-57
2022/07/24 06:12:07;;;;;;;38.55;19.40;;;;;;;;;;3354266;42;20093;-58
2022/07/24 06:14:33;;;;;;;35.45;18.98;;;;;;;;;;3354759;42;20119;-58
2022/07/24 06:16:59;;;;;;;34.70;17.77;;;;;;;;;;3354966;42;20111;-56
2022/07/24 06:19:25;;;;;;;27.38;15.27;;;;;;;;;;3358056;42;20148;-56
2022/07/24 06:21:51;;;;;;;28.10;14.38;;;;;;;;;;3350080;42;20136;-60
2022/07/24 06:24:17;;;;;;;16.42;10.40;;;;;;;;;;3355781;42;20104;-61
2022/07/24 06:26:43;;;;;;;16.13;9.48;;;;;;;;;;3352781;42;20096;-62
2022/07/24 06:29:09;;;;;;;16.60;9.25;;;;;;;;;;3358803;42;20095;-61
2022/07/24 06:31:35;;;;;;;14.07;8.60;;;;;;;;;;3354079;42;20099;-58
2022/07/24 06:34:01;;;;;;;13.38;8.85;;;;;;;;;;3356237;42;20594;-58
2022/07/24 06:36:27;;;;;;;12.30;7.95;;;;;;;;;;3352497;42;20295;-57
2022/07/24 06:38:53;;;;;;;13.10;8.50;;;;;;;;;;3359113;42;20096;-58
2022/07/24 06:41:19;;;;;;;12.03;7.47;;;;;;;;;;3354207;42;20085;-59
2022/07/24 06:43:45;;;;;;;10.80;6.72;;;;;;;;;;3354992;42;20084;-57
2022/07/24 06:46:11;;;;;;;12.98;7.18;;;;;;;;;;3358111;42;20077;-57
2022/07/24 06:48:38;;;;;;;12.75;7.30;;;;;;;;;;3357700;42;20085;-57
2022/07/24 06:51:04;;;;;;;11.82;6.85;;;;;;;;;;3350389;42;20204;-57
2022/07/24 06:53:30;;;;;;;13.63;6.70;;;;;;;;;;3355393;42;20095;-57
2022/07/24 06:55:56;;;;;;;13.52;6.45;;;;;;;;;;3343038;42;20080;-58
2022/07/24 06:58:22;;;;;;;11.48;6.65;;;;;;;;;;3352681;42;20152;-57
2022/07/24 07:00:49;;;;;;;10.50;6.80;;;;;;;;;;3353304;42;20104;-58
2022/07/24 07:03:15;;;;;;;12.15;6.43;;;;;;;;;;3353957;42;20554;-57
2022/07/24 07:05:41;;;;;;;11.30;6.60;;;;;;;;;;3352905;42;20151;-57
2022/07/24 07:08:07;;;;;;;12.73;6.40;;;;;;;;;;3350882;42;20103;-58
2022/07/24 07:10:33;;;;;;;14.60;7.05;;;;;;;;;;3353684;42;20089;-57
2022/07/24 07:12:59;;;;;;;12.13;6.30;;;;;;;;;;3355650;42;20648;-57
2022/07/24 07:15:26;;;;;;;12.18;6.50;;;;;;;;;;3354874;42;20092;-57
2022/07/24 07:17:52;;;;;;;11.52;5.93;;;;;;;;;;3359257;42;20139;-57
2022/07/24 07:20:18;;;;;;;9.90;5.85;;;;;;;;;;3359159;42;20501;-57
2022/07/24 07:22:44;;;;;;;14.87;7.00;;;;;;;;;;3361446;42;20110;-57
2022/07/24 07:25:10;;;;;;;9.93;6.20;;;;;;;;;;3359859;42;20318;-57
2022/07/24 07:27:39;;;;;;;10.23;5.90;;;;;;;;;;3360346;42;20092;-60
2022/07/24 07:30:06;;;;;;;9.32;6.10;;;;;;;;;;3360619;42;20104;-58
2022/07/24 07:32:32;;;;;;;11.52;6.13;;;;;;;;;;3360723;42;20080;-57
2022/07/24 07:34:58;;;;;;;10.80;6.57;;;;;;;;;;3360954;42;20729;-56
2022/07/24 07:37:24;;;;;;;11.27;5.90;;;;;;;;;;3351829;42;20805;-58
2022/07/24 07:39:50;;;;;;;11.57;5.95;;;;;;;;;;3352625;42;20119;-57
2022/07/24 07:42:16;;;;;;;10.70;6.57;;;;;;;;;;3359632;42;20153;-56
2022/07/24 07:44:42;;;;;;;11.82;6.80;;;;;;;;;;3360788;42;20163;-58
2022/07/24 07:47:07;;;;;;;10.47;6.37;;;;;;;;;;3361772;42;20610;-57
2022/07/24 07:49:33;;;;;;;12.00;6.50;;;;;;;;;;3359846;42;20091;-54
2022/07/24 07:51:59;;;;;;;12.07;6.75;;;;;;;;;;3361028;42;20095;-56
2022/07/24 07:54:25;;;;;;;10.80;6.43;;;;;;;;;;3352052;42;20093;-56
2022/07/24 07:56:52;;;;;;;10.03;6.30;;;;;;;;;;3359744;42;20072;-56
2022/07/24 07:59:17;;;;;;;9.90;6.13;;;;;;;;;;3359973;42;20570;-56
2022/07/24 08:01:43;;;;;;;10.90;6.53;;;;;;;;;;3361768;42;20083;-57
2022/07/24 08:04:09;;;;;;;9.52;5.80;;;;;;;;;;3360957;42;20103;-57
2022/07/24 08:06:35;;;;;;;12.07;6.20;;;;;;;;;;3352414;42;20090;-58
2022/07/24 08:09:01;;;;;;;10.43;5.97;;;;;;;;;;3360688;42;20084;-58
2022/07/24 08:11:28;;;;;;;10.07;5.57;;;;;;;;;;3360926;42;20092;-64
2022/07/24 08:13:54;;;;;;;11.07;6.03;;;;;;;;;;3361351;42;20523;-59
2022/07/24 08:16:20;;;;;;;11.10;6.00;;;;;;;;;;3361000;42;20691;-58
2022/07/24 08:18:46;;;;;;;9.47;5.93;;;;;;;;;;3363012;42;20084;-60
2022/07/24 08:21:15;;;;;;;10.40;6.20;;;;;;;;;;3355593;42;20107;-58
2022/07/24 08:23:41;;;;;;;10.02;5.90;;;;;;;;;;3351410;42;20084;-59
2022/07/24 08:26:07;;;;;;;10.27;5.40;;;;;;;;;;3357492;42;20103;-58
2022/07/24 08:28:33;;;;;;;9.13;5.40;;;;;;;;;;3358050;42;20092;-58
2022/07/24 08:30:59;;;;;;;10.20;5.93;;;;;;;;;;3352017;42;20084;-57
2022/07/24 08:33:25;;;;;;;9.32;5.05;;;;;;;;;;3348610;42;20085;-58
2022/07/24 08:35:51;;;;;;;9.18;5.65;;;;;;;;;;3356734;42;20143;-58
2022/07/24 08:38:17;;;;;;;9.63;5.67;;;;;;;;;;3357576;42;20104;-57
2022/07/24 08:40:43;;;;;;;9.52;5.38;;;;;;;;;;3359407;42;20503;-58
2022/07/24 08:43:09;;;;;;;10.00;5.20;;;;;;;;;;3360319;42;20173;-58
2022/07/24 08:45:38;;;;;;;10.03;5.60;;;;;;;;;;3350863;42;20538;-58
2022/07/24 08:48:06;;;;;;;8.80;5.57;;;;;;;;;;3356759;42;20107;-57
2022/07/24 08:50:33;;;;;;;10.13;5.95;;;;;;;;;;3356593;42;20171;-57
2022/07/24 08:53:00;;;;;;;9.60;5.10;;;;;;;;;;3351019;42;20151;-57
2022/07/24 08:55:28;;;;;;;8.40;5.10;;;;;;;;;;3357452;42;20556;-56
2022/07/24 08:57:58;;;;;;;9.53;5.37;;;;;;;;;;3358423;42;20143;-57
2022/07/24 09:00:24;;;;;;;13.48;6.35;;;;;;;;;;3348609;42;20170;-57
2022/07/24 09:02:51;;;;;;;9.82;5.65;;;;;;;;;;3357970;42;20088;-55
2022/07/24 09:05:16;;;;;;;11.52;5.93;;;;;;;;;;3357664;42;20088;-56
2022/07/24 09:07:42;;;;;;;9.93;5.68;;;;;;;;;;3342315;42;20151;-58
2022/07/24 09:10:18;;;;;;;12.00;5.90;;;;;;;;;;3356527;42;20092;-55
2022/07/24 09:12:45;;;;;;;12.23;5.68;;;;;;;;;;3351751;42;20084;-57
2022/07/24 09:15:16;;;;;;;10.20;5.90;;;;;;;;;;3347822;42;20147;-58
2022/07/24 09:17:52;;;;;;;10.30;5.80;;;;;;;;;;3345350;42;20080;-58
2022/07/24 09:20:18;;;;;;;9.33;5.60;;;;;;;;;;3353627;42;20095;-56
2022/07/24 09:22:44;;;;;;;10.55;5.20;;;;;;;;;;3356479;42;20085;-58
2022/07/24 09:25:13;;;;;;;9.82;5.05;;;;;;;;;;3352321;42;20156;-56
2022/07/24 09:27:47;;;;;;;8.90;5.20;;;;;;;;;;3356742;42;20080;-55
2022/07/24 09:30:26;;;;;;;10.65;5.30;;;;;;;;;;3356356;42;20620;-56
2022/07/24 09:33:00;;;;;;;9.60;5.50;;;;;;;;;;3354494;42;20499;-54
2022/07/24 09:35:40;;;;;;;10.20;5.55;;;;;;;;;;3354696;42;20203;-57
2022/07/24 09:38:09;;;;;;;9.75;5.65;;;;;;;;;;3346063;42;20656;-60
2022/07/24 09:40:37;;;;;;;9.50;5.20;;;;;;;;;;3354910;42;20714;-59
2022/07/24 09:43:22;;;;;;;9.02;5.15;;;;;;;;;;3353314;42;20163;-58
2022/07/24 09:46:09;;;;;;;8.57;5.30;;;;;;;;;;3351035;42;20088;-58
2022/07/24 09:48:39;;;;;;;10.23;5.22;;;;;;;;;;3349688;42;20080;-54
2022/07/24 09:51:09;;;;;;;9.55;4.90;;;;;;;;;;3354673;42;20095;-58
2022/07/24 09:53:35;;;;;;;10.50;4.82;;;;;;;;;;3351818;42;20166;-58
2022/07/24 09:56:04;;;;;;;8.07;4.80;;;;;;;;;;3353714;42;20080;-57
2022/07/24 09:58:31;;;;;;;8.07;4.63;;;;;;;;;;3345198;42;20099;-55
2022/07/24 10:00:57;;;;;;;8.20;5.13;;;;;;;;;;3349444;42;20092;-58
2022/07/24 10:03:25;;;;;;;8.82;4.82;;;;;;;;;;3353823;42;20597;-57
2022/07/24 10:05:54;;;;;;;8.65;4.60;;;;;;;;;;3351923;42;20111;-56
2022/07/24 10:08:20;;;;;;;8.43;4.75;;;;;;;;;;3344079;42;20152;-54
2022/07/24 10:10:46;;;;;;;8.90;4.70;;;;;;;;;;3344036;42;20084;-56
2022/07/24 10:13:12;;;;;;;8.55;4.60;;;;;;;;;;3342480;42;20100;-59
2022/07/24 10:15:42;;;;;;;8.00;4.88;;;;;;;;;;3345212;42;20096;-61
2022/07/24 10:18:16;;;;;;;9.50;5.00;;;;;;;;;;3344058;42;20092;-53
2022/07/24 10:20:44;;;;;;;9.10;4.80;;;;;;;;;;3353938;42;20140;-54
2022/07/24 10:23:21;;;;;;;9.75;5.20;;;;;;;;;;3349143;42;20550;-62
2022/07/24 10:26:05;;;;;;;9.75;4.60;;;;;;;;;;3349664;42;20096;-55
2022/07/24 10:28:41;;;;;;;8.98;4.40;;;;;;;;;;3360398;42;20163;-55
2022/07/24 10:31:12;;;;;;;9.93;4.70;;;;;;;;;;3357495;42;20167;-55
2022/07/24 10:33:39;;;;;;;8.43;4.70;;;;;;;;;;3353999;42;20565;-53
2022/07/24 10:36:12;;;;;;;8.95;4.80;;;;;;;;;;3345848;42;20099;-52
2022/07/24 10:38:40;;;;;;;9.40;4.70;;;;;;;;;;3338173;42;20084;-54
2022/07/24 10:41:11;;;;;;;8.68;4.50;;;;;;;;;;3345759;42;20143;-56
2022/07/24 10:43:37;;;;;;;7.90;4.70;;;;;;;;;;3343952;42;20096;-52
2022/07/24 10:46:09;;;;;;;9.67;5.03;;;;;;;;;;3357759;42;20616;-58
2022/07/24 10:48:35;;;;;;;8.60;4.47;;;;;;;;;;3354702;42;20100;-51
2022/07/24 10:51:07;;;;;;;9.60;4.85;;;;;;;;;;3357911;42;20088;-54
2022/07/24 10:53:36;;;;;;;10.52;6.00;;;;;;;;;;3354951;42;20106;-54
2022/07/24 10:56:23;;;;;;;10.68;5.50;;;;;;;;;;3357327;42;20143;-56
2022/07/24 10:59:02;;;;;;;9.07;5.07;;;;;;;;;;3356692;42;20143;-50
2022/07/24 11:01:36;;;;;;;9.32;5.40;;;;;;;;;;3355913;42;20100;-54
2022/07/24 11:04:18;;;;;;;9.23;5.00;;;;;;;;;;3357746;42;20571;-55
2022/07/24 11:06:50;;;;;;;9.52;4.60;;;;;;;;;;3350507;42;20614;-57
2022/07/24 11:09:18;;;;;;;8.60;5.00;;;;;;;;;;3354391;42;20227;-57
2022/07/24 11:11:56;;;;;;;9.87;5.37;;;;;;;;;;3356664;42;20220;-58
2022/07/24 11:14:26;;;;;;;14.13;5.13;;;;;;;;;;3356507;42;20623;-59
2022/07/24 11:16:52;;;;;;;9.98;4.95;;;;;;;;;;3341376;42;20088;-59
2022/07/24 11:19:18;;;;;;;9.32;4.90;;;;;;;;;;3348091;42;20147;-58
2022/07/24 11:21:46;;;;;;;9.43;5.00;;;;;;;;;;3354605;42;20084;-59
2022/07/24 11:24:21;;;;;;;10.10;5.00;;;;;;;;;;3341651;42;20107;-57
2022/07/24 11:26:51;;;;;;;8.88;5.05;;;;;;;;;;3355199;42;20136;-58
2022/07/24 11:29:23;;;;;;;9.13;5.10;;;;;;;;;;3343047;42;20092;-58
2022/07/24 11:31:51;;;;;;;9.60;4.97;;;;;;;;;;3357333;42;20112;-58
2022/07/24 11:34:17;;;;;;;9.10;4.87;;;;;;;;;;3351547;42;20558;-59
2022/07/24 11:36:44;;;;;;;8.77;5.10;;;;;;;;;;3350565;42;20543;-58
2022/07/24 11:39:10;;;;;;;8.57;4.85;;;;;;;;;;3343713;42;20218;-59
2022/07/24 11:41:46;;;;;;;9.25;5.10;;;;;;;;;;3352777;42;20141;-59
2022/07/24 11:44:23;;;;;;;10.90;5.30;;;;;;;;;;3353097;42;20178;-59
2022/07/24 11:46:48;;;;;;;9.10;5.13;;;;;;;;;;3342135;42;20089;-60
2022/07/24 11:49:14;;;;;;;10.38;4.78;;;;;;;;;;3356392;42;20094;-59
2022/07/24 11:51:45;;;;;;;9.43;5.30;;;;;;;;;;3355662;42;20088;-58
2022/07/24 11:54:12;;;;;;;11.70;5.20;;;;;;;;;;3351678;42;20552;-59
2022/07/24 11:56:38;;;;;;;12.00;5.50;;;;;;;;;;3355487;42;20104;-57
2022/07/24 11:59:04;;;;;;;11.27;6.03;;;;;;;;;;3353457;42;20114;-59
2022/07/24 12:01:30;;;;;;;13.48;5.93;;;;;;;;;;3345593;42;20097;-59
2022/07/24 12:03:58;;;;;;;11.38;6.00;;;;;;;;;;3353107;42;20487;-58
2022/07/24 12:06:24;;;;;;;12.20;6.00;;;;;;;;;;3353615;42;20107;-59
2022/07/24 12:08:50;;;;;;;10.73;5.93;;;;;;;;;;3348434;42;20136;-59
2022/07/24 12:11:21;;;;;;;11.98;5.90;;;;;;;;;;3356380;42;20096;-60
2022/07/24 12:13:47;;;;;;;9.07;4.93;;;;;;;;;;3343178;42;20148;-58
2022/07/24 12:16:26;;;;;;;9.57;5.45;;;;;;;;;;3355963;42;20494;-57
2022/07/24 12:18:52;;;;;;;9.87;5.17;;;;;;;;;;3343725;42;20124;-58
2022/07/24 12:21:18;;;;;;;9.88;5.90;;;;;;;;;;3350521;42;20560;-59
2022/07/24 12:23:47;;;;;;;11.80;5.43;;;;;;;;;;3342047;42;20479;-60
2022/07/24 12:26:13;;;;;;;11.60;5.40;;;;;;;;;;3347928;42;20640;-59
2022/07/24 12:28:39;;;;;;;11.73;5.73;;;;;;;;;;3352207;42;20151;-58
2022/07/24 12:31:09;;;;;;;10.55;5.38;;;;;;;;;;3351727;42;20097;-58
2022/07/24 12:33:34;;;;;;;10.45;5.20;;;;;;;;;;3350633;42;20486;-57
2022/07/24 12:36:11;;;;;;;9.73;5.05;;;;;;;;;;3352112;42;20089;-52
2022/07/24 12:38:56;;;;;;;10.27;5.50;;;;;;;;;;3348319;42;20573;-51
2022/07/24 12:41:25;;;;;;;15.50;6.40;;;;;;;;;;3350462;42;20088;-53
2022/07/24 12:44:00;;;;;;;12.02;5.80;;;;;;;;;;3352963;42;20107;-53
2022/07/24 12:46:29;;;;;;;10.48;5.05;;;;;;;;;;3358054;42;20088;-55
2022/07/24 12:49:05;;;;;;;10.07;5.15;;;;;;;;;;3357241;42;20139;-52
2022/07/24 12:51:50;;;;;;;9.75;5.20;;;;;;;;;;3352570;42;20096;-54
2022/07/24 12:54:24;;;;;;;9.50;5.60;;;;;;;;;;3353687;42;20211;-55
2022/07/24 12:56:52;;;;;;;9.60;5.20;;;;;;;;;;3353276;42;20080;-58
2022/07/24 12:59:23;;;;;;;12.57;5.45;;;;;;;;;;3351292;42;20187;-57
2022/07/24 13:01:50;;;;;;;9.85;5.30;;;;;;;;;;3350579;42;20104;-58
2022/07/24 13:04:21;;;;;;;10.57;5.38;;;;;;;;;;3352691;42;20099;-57
2022/07/24 13:06:51;;;;;;;9.17;5.43;;;;;;;;;;3356683;42;20100;-59
2022/07/24 13:09:18;;;;;;;9.57;5.63;;;;;;;;;;3352500;42;20171;-57
2022/07/24 13:11:45;;;;;;;10.02;5.70;;;;;;;;;;3356917;42;20092;-58
2022/07/24 13:14:11;;;;;;;10.23;5.53;;;;;;;;;;3355722;42;20100;-58
2022/07/24 13:16:38;;;;;;;10.07;5.55;;;;;;;;;;3356155;42;20092;-59
2022/07/24 13:19:05;;;;;;;11.67;5.57;;;;;;;;;;3351892;42;20084;-59
2022/07/24 13:21:31;;;;;;;13.05;6.10;;;;;;;;;;3345234;42;20506;-59
2022/07/24 13:23:57;;;;;;;12.57;5.60;;;;;;;;;;3352550;42;20107;-59
2022/07/24 13:26:23;;;;;;;10.43;6.20;;;;;;;;;;3354130;42;20132;-60
2022/07/24 13:28:50;;;;;;;10.27;5.88;;;;;;;;;;3343781;42;20100;-60
2022/07/24 13:31:16;;;;;;;11.23;5.90;;;;;;;;;;3351955;42;20139;-57
2022/07/24 13:33:42;;;;;;;10.30;5.85;;;;;;;;;;3351474;42;20108;-58
2022/07/24 13:36:08;;;;;;;10.40;5.70;;;;;;;;;;3352792;42;20077;-59
2022/07/24 13:38:34;;;;;;;10.55;5.85;;;;;;;;;;3352581;42;20137;-58
2022/07/24 13:41:01;;;;;;;9.77;5.77;;;;;;;;;;3353896;42;20124;-58
2022/07/24 13:43:26;;;;;;;10.02;6.00;;;;;;;;;;3350871;42;20254;-58
2022/07/24 13:45:52;;;;;;;14.10;6.35;;;;;;;;;;3356615;42;20584;-58
2022/07/24 13:48:18;;;;;;;10.77;5.90;;;;;;;;;;3351039;42;20664;-59
2022/07/24 13:50:44;;;;;;;12.67;5.80;;;;;;;;;;3351592;42;20362;-55
2022/07/24 13:53:10;;;;;;;10.75;5.30;;;;;;;;;;3343550;42;20475;-57
2022/07/24 13:55:36;;;;;;;10.10;5.63;;;;;;;;;;3349781;42;20076;-58
2022/07/24 13:58:02;;;;;;;10.88;4.88;;;;;;;;;;3342675;42;20175;-58
2022/07/24 14:00:28;;;;;;;9.33;4.90;;;;;;;;;;3342952;42;20152;-58
2022/07/24 14:02:57;;;;;;;8.27;4.50;;;;;;;;;;3341843;42;20106;-58
2022/07/24 14:05:23;;;;;;;9.82;4.50;;;;;;;;;;3350011;42;20590;-58
2022/07/24 14:07:49;;;;;;;10.25;4.47;;;;;;;;;;3354198;42;20103;-58
2022/07/24 14:10:15;;;;;;;13.87;5.07;;;;;;;;;;3356724;42;20236;-58
2022/07/24 14:12:41;;;;;;;10.00;4.70;;;;;;;;;;3356118;42;20604;-59
2022/07/24 14:15:08;;;;;;;13.75;5.65;;;;;;;;;;3349541;42;20088;-59
2022/07/24 14:17:34;;;;;;;15.88;5.95;;;;;;;;;;3358051;42;20140;-60
2022/07/24 14:20:00;;;;;;;10.83;5.33;;;;;;;;;;3345583;42;20100;-58
2022/07/24 14:22:26;;;;;;;11.10;5.90;;;;;;;;;;3356401;42;20171;-58
2022/07/24 14:24:52;;;;;;;11.02;4.82;;;;;;;;;;3355975;42;20092;-60
2022/07/24 14:27:18;;;;;;;10.70;5.35;;;;;;;;;;3353489;42;20104;-58
2022/07/24 14:29:44;;;;;;;10.00;5.27;;;;;;;;;;3352444;42;20190;-58
2022/07/24 14:32:10;;;;;;;9.65;4.78;;;;;;;;;;3353324;42;20491;-57